createdAt,value
2018-08-04T00:01:50.491Z,20.02
2018-08-04T00:04:19.640Z,20.01
2018-08-04T00:06:48.800Z,20.02
2018-08-04T00:09:18.009Z,20.01
2018-08-04T00:11:47.215Z,20.00
2018-08-04T00:14:16.437Z,19.98
2018-08-04T00:16:45.575Z,19.95
2018-08-04T00:19:14.704Z,19.93
2018-08-04T00:21:43.841Z,19.88
2018-08-04T00:24:13.041Z,19.85
2018-08-04T00:26:42.169Z,19.82
2018-08-04T00:29:11.879Z,19.76
2018-08-04T00:31:41.054Z,19.71
2018-08-04T00:34:10.216Z,19.66
2018-08-04T00:36:39.365Z,19.62
2018-08-04T00:39:08.775Z,19.61
2018-08-04T00:41:37.994Z,19.61
2018-08-04T00:44:07.180Z,19.60
2018-08-04T00:46:36.360Z,19.57
2018-08-04T00:49:05.660Z,19.54
2018-08-04T00:51:34.845Z,19.51
2018-08-04T00:54:04.018Z,19.46
2018-08-04T00:56:33.170Z,19.37
2018-08-04T00:59:02.304Z,19.37
2018-08-04T01:01:31.482Z,19.39
2018-08-04T01:04:00.641Z,19.39
2018-08-04T01:06:29.831Z,19.33
2018-08-04T01:08:58.976Z,19.27
2018-08-04T01:11:28.172Z,19.28
2018-08-04T01:13:57.320Z,19.26
2018-08-04T01:16:26.457Z,19.28
2018-08-04T01:18:55.621Z,19.27
2018-08-04T01:21:24.794Z,19.28
2018-08-04T01:23:53.936Z,19.29
2018-08-04T01:26:23.427Z,19.28
2018-08-04T01:28:52.562Z,19.25
2018-08-04T01:31:21.707Z,19.25
2018-08-04T01:33:50.884Z,19.21
2018-08-04T01:36:20.041Z,19.13
2018-08-04T01:38:49.181Z,19.13
2018-08-04T01:41:18.375Z,19.11
2018-08-04T01:43:47.489Z,19.03
2018-08-04T01:46:17.205Z,18.96
2018-08-04T01:48:46.412Z,18.93
2018-08-04T01:51:17.155Z,18.88
2018-08-04T01:53:46.339Z,18.81
2018-08-04T01:56:15.812Z,18.78
2018-08-04T01:58:44.917Z,18.79
2018-08-04T02:01:14.060Z,18.79
2018-08-04T02:03:43.225Z,18.80
2018-08-04T02:06:12.390Z,18.79
2018-08-04T02:08:41.514Z,18.80
2018-08-04T02:11:10.687Z,18.80
2018-08-04T02:13:39.812Z,18.82
2018-08-04T02:16:09.053Z,18.80
2018-08-04T02:18:38.204Z,18.77
2018-08-04T02:21:07.591Z,18.76
2018-08-04T02:23:36.746Z,18.75
2018-08-04T02:26:06.250Z,18.71
2018-08-04T02:28:35.384Z,18.63
2018-08-04T02:31:04.558Z,18.59
2018-08-04T02:33:33.718Z,18.51
2018-08-04T02:36:02.896Z,18.47
2018-08-04T02:38:32.046Z,18.45
2018-08-04T02:41:01.216Z,18.46
2018-08-04T02:43:31.292Z,18.47
2018-08-04T02:46:00.470Z,18.45
2018-08-04T02:48:29.740Z,18.37
2018-08-04T02:50:58.896Z,18.36
2018-08-04T02:53:28.044Z,18.32
2018-08-04T02:55:57.185Z,18.33
2018-08-04T02:58:26.395Z,18.33
2018-08-04T03:00:55.601Z,18.32
2018-08-04T03:03:24.822Z,18.33
2018-08-04T03:05:53.967Z,18.32
2018-08-04T03:08:23.070Z,18.29
2018-08-04T03:10:52.298Z,18.28
2018-08-04T03:13:21.441Z,18.25
2018-08-04T03:15:50.584Z,18.21
2018-08-04T03:18:19.755Z,18.18
2018-08-04T03:20:49.058Z,18.11
2018-08-04T03:23:18.299Z,18.06
2018-08-04T03:25:47.490Z,18.02
2018-08-04T03:28:16.605Z,17.98
2018-08-04T03:30:45.748Z,17.97
2018-08-04T03:33:14.976Z,17.96
2018-08-04T03:35:44.177Z,17.95
2018-08-04T03:38:13.345Z,17.94
2018-08-04T03:40:42.512Z,17.86
2018-08-04T03:43:11.632Z,17.85
2018-08-04T03:45:40.778Z,17.88
2018-08-04T03:48:09.929Z,17.90
2018-08-04T03:50:39.210Z,17.91
2018-08-04T03:53:09.493Z,17.92
2018-08-04T03:55:38.655Z,17.93
2018-08-04T03:58:07.830Z,17.96
2018-08-04T04:00:37.021Z,17.97
2018-08-04T04:03:06.321Z,17.98
2018-08-04T04:05:35.483Z,17.99
2018-08-04T04:08:04.655Z,18.01
2018-08-04T04:10:33.850Z,18.03
2018-08-04T04:13:03.016Z,18.08
2018-08-04T04:15:32.172Z,18.11
2018-08-04T04:18:01.335Z,18.10
2018-08-04T04:20:30.477Z,18.12
2018-08-04T04:22:59.608Z,18.14
2018-08-04T04:25:28.818Z,18.19
2018-08-04T04:27:57.945Z,18.22
2018-08-04T04:30:27.684Z,18.23
2018-08-04T04:32:56.860Z,18.27
2018-08-04T04:35:26.002Z,18.33
2018-08-04T04:37:55.357Z,18.37
2018-08-04T04:40:24.535Z,18.17
2018-08-04T04:42:53.655Z,18.42
2018-08-04T04:45:22.806Z,18.47
2018-08-04T04:47:51.970Z,18.53
2018-08-04T04:50:21.134Z,18.58
2018-08-04T04:52:50.352Z,18.64
2018-08-04T04:55:19.572Z,18.76
2018-08-04T04:57:48.691Z,18.81
2018-08-04T05:00:17.838Z,18.90
2018-08-04T05:02:47.001Z,18.96
2018-08-04T05:05:16.136Z,19.00
2018-08-04T05:07:45.251Z,19.06
2018-08-04T05:10:14.436Z,19.13
2018-08-04T05:12:43.540Z,19.23
2018-08-04T05:15:12.741Z,19.33
2018-08-04T05:17:41.933Z,19.39
2018-08-04T05:20:11.081Z,19.47
2018-08-04T05:22:40.232Z,19.53
2018-08-04T05:25:09.548Z,19.60
2018-08-04T05:27:38.665Z,19.66
2018-08-04T05:30:08.327Z,20.00
2018-08-04T05:32:37.539Z,20.47
2018-08-04T05:35:06.816Z,20.57
2018-08-04T05:37:35.926Z,20.90
2018-08-04T05:40:05.327Z,21.08
2018-08-04T05:42:34.585Z,21.31
2018-08-04T05:45:03.799Z,21.46
2018-08-04T05:47:32.978Z,21.50
2018-08-04T05:50:02.149Z,21.41
2018-08-04T05:52:31.296Z,21.59
2018-08-04T05:55:00.465Z,21.83
2018-08-04T05:57:29.607Z,21.76
2018-08-04T05:59:58.758Z,21.69
2018-08-04T06:02:27.900Z,21.87
2018-08-04T06:04:57.039Z,22.07
2018-08-04T06:07:26.199Z,21.90
2018-08-04T06:09:55.563Z,22.30
2018-08-04T06:12:24.732Z,22.40
2018-08-04T06:14:53.887Z,22.53
2018-08-04T06:17:23.033Z,22.39
2018-08-04T06:19:52.136Z,22.58
2018-08-04T06:22:21.253Z,22.50
2018-08-04T06:24:51.406Z,22.26
2018-08-04T06:27:20.522Z,22.32
2018-08-04T06:29:49.648Z,22.34
2018-08-04T06:32:18.800Z,22.49
2018-08-04T06:34:48.021Z,22.69
2018-08-04T06:37:18.567Z,22.87
2018-08-04T06:39:47.720Z,22.92
2018-08-04T06:42:16.836Z,22.96
2018-08-04T06:44:45.969Z,22.96
2018-08-04T06:47:15.121Z,23.02
2018-08-04T06:49:44.248Z,23.15
2018-08-04T06:52:13.544Z,23.26
2018-08-04T06:54:42.696Z,23.36
2018-08-04T06:57:11.866Z,23.54
2018-08-04T06:59:40.991Z,23.65
2018-08-04T07:02:10.164Z,23.78
2018-08-04T07:04:39.291Z,23.93
2018-08-04T07:07:08.976Z,23.96
2018-08-04T07:09:38.180Z,24.01
2018-08-04T07:12:07.372Z,24.10
2018-08-04T07:14:36.534Z,24.19
2018-08-04T07:17:05.754Z,24.27
2018-08-04T07:19:35.041Z,24.34
2018-08-04T07:22:04.192Z,24.44
2018-08-04T07:24:33.318Z,24.56
2018-08-04T07:27:02.447Z,24.48
2018-08-04T07:29:31.592Z,24.57
2018-08-04T07:32:01.090Z,24.53
2018-08-04T07:34:34.777Z,24.53
2018-08-04T07:37:03.991Z,24.78
2018-08-04T07:39:33.096Z,24.95
2018-08-04T07:42:02.265Z,25.22
2018-08-04T07:44:31.434Z,25.34
2018-08-04T07:47:00.582Z,25.31
2018-08-04T07:49:29.702Z,25.36
2018-08-04T07:51:58.889Z,25.42
2018-08-04T07:54:28.004Z,25.54
2018-08-04T07:56:57.297Z,25.63
2018-08-04T07:59:26.568Z,25.57
2018-08-04T08:01:55.700Z,25.57
2018-08-04T08:04:24.833Z,25.53
2018-08-04T08:06:55.456Z,25.71
2018-08-04T08:09:24.596Z,25.85
2018-08-04T08:11:53.724Z,26.06
2018-08-04T08:14:22.929Z,26.34
2018-08-04T08:16:52.079Z,26.51
2018-08-04T08:19:21.228Z,26.46
2018-08-04T08:21:50.466Z,26.57
2018-08-04T08:24:19.616Z,26.70
2018-08-04T08:26:48.809Z,26.79
2018-08-04T08:29:18.060Z,26.93
2018-08-04T08:31:47.210Z,27.09
2018-08-04T08:34:16.360Z,27.17
2018-08-04T08:36:45.569Z,27.29
2018-08-04T08:39:14.717Z,27.47
2018-08-04T08:41:43.864Z,27.61
2018-08-04T08:44:13.024Z,27.88
2018-08-04T08:46:42.206Z,28.03
2018-08-04T08:49:11.761Z,28.28
2018-08-04T08:51:40.915Z,28.37
2018-08-04T08:54:10.269Z,28.26
2018-08-04T08:56:39.355Z,28.30
2018-08-04T08:59:08.505Z,28.51
2018-08-04T09:01:37.692Z,28.66
2018-08-04T09:04:07.209Z,28.67
2018-08-04T09:06:36.406Z,28.54
2018-08-04T09:09:08.386Z,28.85
2018-08-04T09:11:38.539Z,28.95
2018-08-04T09:14:07.753Z,28.81
2018-08-04T09:16:37.764Z,28.89
2018-08-04T09:19:07.106Z,28.66
2018-08-04T09:21:36.416Z,28.79
2018-08-04T09:24:05.639Z,28.97
2018-08-04T09:26:34.816Z,29.14
2018-08-04T09:29:03.948Z,29.39
2018-08-04T09:31:33.110Z,29.45
2018-08-04T09:34:02.288Z,29.56
2018-08-04T09:36:31.457Z,29.85
2018-08-04T09:39:00.628Z,29.91
2018-08-04T09:41:29.825Z,30.08
2018-08-04T09:43:58.959Z,30.10
2018-08-04T09:46:28.144Z,29.92
2018-08-04T09:48:57.317Z,30.10
2018-08-04T09:51:26.429Z,30.09
2018-08-04T09:53:56.656Z,30.34
2018-08-04T09:56:26.342Z,30.75
2018-08-04T09:58:55.502Z,30.97
2018-08-04T10:01:29.847Z,30.68
2018-08-04T10:03:59.340Z,30.61
2018-08-04T10:06:28.614Z,30.63
2018-08-04T10:08:57.846Z,30.99
2018-08-04T10:11:27.029Z,30.97
2018-08-04T10:13:56.157Z,30.94
2018-08-04T10:16:25.366Z,31.13
2018-08-04T10:18:54.534Z,31.09
2018-08-04T10:21:23.701Z,31.44
2018-08-04T10:23:52.851Z,31.49
2018-08-04T10:26:21.993Z,31.52
2018-08-04T10:28:51.146Z,31.85
2018-08-04T10:31:20.412Z,31.79
2018-08-04T10:33:49.572Z,31.79
2018-08-04T10:36:18.733Z,31.73
2018-08-04T10:38:47.996Z,32.17
2018-08-04T10:41:17.153Z,32.40
2018-08-04T10:43:46.295Z,32.50
2018-08-04T10:46:15.546Z,32.51
2018-08-04T10:48:44.695Z,32.71
2018-08-04T10:51:13.856Z,33.01
2018-08-04T10:53:43.016Z,33.14
2018-08-04T10:56:12.176Z,33.13
2018-08-04T10:58:41.302Z,33.11
2018-08-04T11:01:10.476Z,33.17
2018-08-04T11:03:39.633Z,32.99
2018-08-04T11:06:08.806Z,32.74
2018-08-04T11:08:38.005Z,33.22
2018-08-04T11:11:07.589Z,33.28
2018-08-04T11:13:36.747Z,33.33
2018-08-04T11:16:06.089Z,33.10
2018-08-04T11:18:35.236Z,33.55
2018-08-04T11:21:04.452Z,33.61
2018-08-04T11:23:33.600Z,33.66
2018-08-04T11:26:02.741Z,33.48
2018-08-04T11:28:31.938Z,33.59
2018-08-04T11:31:01.168Z,33.81
2018-08-04T11:33:30.310Z,33.99
2018-08-04T11:35:59.458Z,33.91
2018-08-04T11:38:28.621Z,33.74
2018-08-04T11:40:57.761Z,33.99
2018-08-04T11:43:26.889Z,34.14
2018-08-04T11:45:56.042Z,33.91
2018-08-04T11:48:25.206Z,33.67
2018-08-04T11:50:54.485Z,33.66
2018-08-04T11:53:23.634Z,33.33
2018-08-04T11:55:54.884Z,33.72
2018-08-04T11:58:25.029Z,33.37
2018-08-04T12:00:55.182Z,33.25
2018-08-04T12:03:29.299Z,33.61
2018-08-04T12:05:59.573Z,33.59
2018-08-04T12:08:28.729Z,33.93
2018-08-04T12:10:57.896Z,34.01
2018-08-04T12:13:27.183Z,34.10
2018-08-04T12:15:56.317Z,33.91
2018-08-04T12:18:25.489Z,33.97
2018-08-04T12:20:54.658Z,34.15
2018-08-04T12:23:23.823Z,34.23
2018-08-04T12:25:53.050Z,34.03
2018-08-04T12:28:22.269Z,34.19
2018-08-04T12:30:51.535Z,34.27
2018-08-04T12:33:20.688Z,34.05
2018-08-04T12:35:49.828Z,34.05
2018-08-04T12:38:19.063Z,33.96
2018-08-04T12:40:48.295Z,33.91
2018-08-04T12:43:17.467Z,34.06
2018-08-04T12:45:46.850Z,34.16
2018-08-04T12:48:16.028Z,34.44
2018-08-04T12:50:45.222Z,34.34
2018-08-04T12:53:14.396Z,34.04
2018-08-04T12:55:43.595Z,34.18
2018-08-04T12:58:13.000Z,34.06
2018-08-04T13:00:42.132Z,34.02
2018-08-04T13:03:11.703Z,34.01
2018-08-04T13:05:40.827Z,34.18
2018-08-04T13:08:09.943Z,34.09
2018-08-04T13:10:39.124Z,34.23
2018-08-04T13:13:08.544Z,34.12
2018-08-04T13:15:37.673Z,34.18
2018-08-04T13:18:06.839Z,34.29
2018-08-04T13:20:35.988Z,34.02
2018-08-04T13:23:05.129Z,34.24
2018-08-04T13:25:34.354Z,34.02
2018-08-04T13:28:05.258Z,33.93
2018-08-04T13:30:34.601Z,33.93
2018-08-04T13:33:03.792Z,34.10
2018-08-04T13:35:33.016Z,34.40
2018-08-04T13:38:02.243Z,34.52
2018-08-04T13:40:31.428Z,34.58
2018-08-04T13:43:00.649Z,34.56
2018-08-04T13:45:29.751Z,34.60
2018-08-04T13:47:58.876Z,34.78
2018-08-04T13:50:28.014Z,34.66
2018-08-04T13:52:57.131Z,34.46
2018-08-04T13:55:26.284Z,34.54
2018-08-04T13:57:55.418Z,34.64
2018-08-04T14:00:24.574Z,34.08
2018-08-04T14:02:53.867Z,34.37
2018-08-04T14:05:22.999Z,34.41
2018-08-04T14:07:52.161Z,34.41
2018-08-04T14:10:21.346Z,34.25
2018-08-04T14:12:50.543Z,34.20
2018-08-04T14:15:19.708Z,34.27
2018-08-04T14:17:48.931Z,34.05
2018-08-04T14:20:18.125Z,34.17
2018-08-04T14:22:47.499Z,34.12
2018-08-04T14:25:16.686Z,34.33
2018-08-04T14:27:45.865Z,34.26
2018-08-04T14:30:15.117Z,34.28
2018-08-04T14:32:44.311Z,34.34
2018-08-04T14:35:13.494Z,34.33
2018-08-04T14:37:42.702Z,34.33
2018-08-04T14:40:11.873Z,34.45
2018-08-04T14:42:41.069Z,34.28
2018-08-04T14:45:11.186Z,34.33
2018-08-04T14:47:40.389Z,34.25
2018-08-04T14:50:09.530Z,34.21
2018-08-04T14:52:38.698Z,34.09
2018-08-04T14:55:08.193Z,34.28
2018-08-04T14:57:37.453Z,34.32
2018-08-04T15:00:06.851Z,34.37
2018-08-04T15:02:36.153Z,34.38
2018-08-04T15:05:05.460Z,34.32
2018-08-04T15:07:34.631Z,34.30
2018-08-04T15:10:03.837Z,34.07
2018-08-04T15:12:33.032Z,34.12
2018-08-04T15:15:02.198Z,34.21
2018-08-04T15:17:31.392Z,34.20
2018-08-04T15:20:00.530Z,33.92
2018-08-04T15:22:29.732Z,33.90
2018-08-04T15:24:58.961Z,33.84
2018-08-04T15:27:28.087Z,33.83
2018-08-04T15:29:57.203Z,33.81
2018-08-04T15:32:26.376Z,33.97
2018-08-04T15:34:56.169Z,34.11
2018-08-04T15:37:25.329Z,34.09
2018-08-04T15:39:54.593Z,34.09
2018-08-04T15:42:23.732Z,33.82
2018-08-04T15:44:52.981Z,33.79
2018-08-04T15:47:22.137Z,33.67
2018-08-04T15:49:51.249Z,33.46
2018-08-04T15:52:20.395Z,33.38
2018-08-04T15:54:49.662Z,33.34
2018-08-04T15:57:18.822Z,33.14
2018-08-04T15:59:47.944Z,33.03
2018-08-04T16:02:17.110Z,32.80
2018-08-04T16:04:46.245Z,32.77
2018-08-04T16:07:15.380Z,32.77
2018-08-04T16:09:44.544Z,32.78
2018-08-04T16:12:13.701Z,32.80
2018-08-04T16:14:42.845Z,32.83
2018-08-04T16:17:12.102Z,32.83
2018-08-04T16:19:41.839Z,32.72
2018-08-04T16:22:11.012Z,32.60
2018-08-04T16:24:40.244Z,32.53
2018-08-04T16:27:09.515Z,32.56
2018-08-04T16:29:38.636Z,32.59
2018-08-04T16:32:07.817Z,32.64
2018-08-04T16:34:36.986Z,32.53
2018-08-04T16:37:06.350Z,32.35
2018-08-04T16:39:35.517Z,32.24
2018-08-04T16:42:04.752Z,32.18
2018-08-04T16:44:33.829Z,32.13
2018-08-04T16:47:02.957Z,32.09
2018-08-04T16:49:32.140Z,32.01
2018-08-04T16:52:01.253Z,31.93
2018-08-04T16:54:30.441Z,31.81
2018-08-04T16:57:00.114Z,31.69
2018-08-04T16:59:29.265Z,31.61
2018-08-04T17:01:58.370Z,31.52
2018-08-04T17:04:27.504Z,31.43
2018-08-04T17:06:56.629Z,31.35
2018-08-04T17:09:25.801Z,31.24
2018-08-04T17:11:54.932Z,31.12
2018-08-04T17:14:24.070Z,30.98
2018-08-04T17:16:53.204Z,30.84
2018-08-04T17:19:22.381Z,30.65
2018-08-04T17:21:51.555Z,30.38
2018-08-04T17:24:20.707Z,30.21
2018-08-04T17:26:50.268Z,30.08
2018-08-04T17:29:19.479Z,29.72
2018-08-04T17:31:48.741Z,29.47
2018-08-04T17:34:18.046Z,29.35
2018-08-04T17:36:47.208Z,29.22
2018-08-04T17:39:16.448Z,29.08
2018-08-04T17:41:45.714Z,28.96
2018-08-04T17:44:14.853Z,28.88
2018-08-04T17:46:44.036Z,28.75
2018-08-04T17:49:13.279Z,28.60
2018-08-04T17:51:42.501Z,28.42
2018-08-04T17:54:11.640Z,28.31
2018-08-04T17:56:40.796Z,28.14
2018-08-04T17:59:09.939Z,27.98
2018-08-04T18:01:39.175Z,27.93
2018-08-04T18:04:08.338Z,27.95
2018-08-04T18:06:37.538Z,27.92
2018-08-04T18:09:09.059Z,27.82
2018-08-04T18:11:39.183Z,27.67
2018-08-04T18:14:08.387Z,27.49
2018-08-04T18:16:37.582Z,27.29
2018-08-04T18:19:06.887Z,27.10
2018-08-04T18:21:36.168Z,26.93
2018-08-04T18:24:05.463Z,26.79
2018-08-04T18:26:34.639Z,26.71
2018-08-04T18:29:03.841Z,26.67
2018-08-04T18:31:33.058Z,26.63
2018-08-04T18:34:02.204Z,26.57
2018-08-04T18:36:31.357Z,26.50
2018-08-04T18:39:00.503Z,26.37
2018-08-04T18:41:29.654Z,26.25
2018-08-04T18:43:59.732Z,26.18
2018-08-04T18:46:29.015Z,26.10
2018-08-04T18:48:58.135Z,25.99
2018-08-04T18:51:27.252Z,25.92
2018-08-04T18:53:56.507Z,25.86
2018-08-04T18:56:25.652Z,25.76
2018-08-04T18:58:54.784Z,25.73
2018-08-04T19:01:24.025Z,25.66
2018-08-04T19:03:53.153Z,25.60
2018-08-04T19:06:22.299Z,25.54
2018-08-04T19:08:51.460Z,25.50
2018-08-04T19:11:20.736Z,25.44
2018-08-04T19:13:49.962Z,25.39
2018-08-04T19:16:19.117Z,25.36
2018-08-04T19:18:48.309Z,25.33
2018-08-04T19:21:17.456Z,25.28
2018-08-04T19:23:46.949Z,25.22
2018-08-04T19:26:16.184Z,25.15
2018-08-04T19:28:45.331Z,25.09
2018-08-04T19:31:14.448Z,25.05
2018-08-04T19:33:43.606Z,24.99
2018-08-04T19:36:12.806Z,24.93
2018-08-04T19:38:41.913Z,24.86
2018-08-04T19:41:11.633Z,24.68
2018-08-04T19:43:40.769Z,24.69
2018-08-04T19:46:09.957Z,24.60
2018-08-04T19:48:39.116Z,24.54
2018-08-04T19:51:08.470Z,24.50
2018-08-04T19:53:37.624Z,24.48
2018-08-04T19:56:06.814Z,24.44
2018-08-04T19:58:35.964Z,24.36
2018-08-04T20:01:05.169Z,24.32
2018-08-04T20:03:34.305Z,24.26
2018-08-04T20:06:03.455Z,24.18
2018-08-04T20:08:32.623Z,24.12
2018-08-04T20:11:01.765Z,24.09
2018-08-04T20:13:30.886Z,24.03
2018-08-04T20:16:00.053Z,23.98
2018-08-04T20:18:29.174Z,23.95
2018-08-04T20:20:58.437Z,23.86
2018-08-04T20:23:27.692Z,23.77
2018-08-04T20:25:56.847Z,23.71
2018-08-04T20:28:25.979Z,23.61
2018-08-04T20:30:55.137Z,23.52
2018-08-04T20:33:24.321Z,23.42
2018-08-04T20:35:53.662Z,23.35
2018-08-04T20:38:22.856Z,23.27
2018-08-04T20:40:52.027Z,23.25
2018-08-04T20:43:21.157Z,23.22
2018-08-04T20:45:50.305Z,23.15
2018-08-04T20:48:19.503Z,23.00
2018-08-04T20:50:48.666Z,22.77
2018-08-04T20:53:17.824Z,22.56
2018-08-04T20:55:46.969Z,22.52
2018-08-04T20:58:16.117Z,22.47
2018-08-04T21:01:59.270Z,22.42
2018-08-04T21:04:29.523Z,22.39
2018-08-04T21:06:58.713Z,22.38
2018-08-04T21:09:27.887Z,22.36
2018-08-04T21:11:57.468Z,22.20
2018-08-04T21:14:27.536Z,22.24
2018-08-04T21:16:57.629Z,22.14
2018-08-04T21:19:27.202Z,22.11
2018-08-04T21:21:56.323Z,22.06
2018-08-04T21:24:26.452Z,22.06
2018-08-04T21:26:56.208Z,22.02
2018-08-04T21:29:25.501Z,22.03
2018-08-04T21:31:54.704Z,22.00
2018-08-04T21:34:23.886Z,21.96
2018-08-04T21:36:53.029Z,21.88
2018-08-04T21:39:22.220Z,21.80
2018-08-04T21:41:51.409Z,21.78
2018-08-04T21:44:20.623Z,21.73
2018-08-04T21:46:51.870Z,21.65
2018-08-04T21:49:21.369Z,21.61
2018-08-04T21:51:51.457Z,21.60
2018-08-04T21:54:20.780Z,21.55
2018-08-04T21:56:49.886Z,21.55
2018-08-04T21:59:19.052Z,21.59
2018-08-04T22:01:55.237Z,21.61
2018-08-04T22:04:24.640Z,21.60
2018-08-04T22:08:05.839Z,21.57
2018-08-04T22:10:35.038Z,21.56
2018-08-04T22:13:04.387Z,21.57
2018-08-04T22:15:33.573Z,21.57
2018-08-04T22:18:02.734Z,21.56
2018-08-04T22:20:31.930Z,21.55
2018-08-04T22:23:01.111Z,21.54
2018-08-04T22:25:30.841Z,21.53
2018-08-04T22:28:00.209Z,21.50
2018-08-04T22:30:29.373Z,21.50
2018-08-04T22:32:58.537Z,21.49
2018-08-04T22:35:34.997Z,21.47
2018-08-04T22:38:04.149Z,21.45
2018-08-04T22:40:33.309Z,21.45
2018-08-04T22:43:02.483Z,21.43
2018-08-04T22:46:04.145Z,21.42
2018-08-04T22:48:33.767Z,21.37
2018-08-04T22:51:03.028Z,21.33
2018-08-04T22:53:32.328Z,21.34
2018-08-04T22:56:01.542Z,21.34
2018-08-04T22:58:30.687Z,21.34
2018-08-04T23:00:59.855Z,21.28
2018-08-04T23:03:29.030Z,21.17
2018-08-04T23:05:58.243Z,21.13
2018-08-04T23:08:27.420Z,21.11
2018-08-04T23:10:56.581Z,21.11
2018-08-04T23:13:25.774Z,21.11
2018-08-04T23:15:54.984Z,21.08
2018-08-04T23:18:27.388Z,21.07
2018-08-04T23:20:56.569Z,21.05
2018-08-04T23:23:25.687Z,21.02
2018-08-04T23:25:54.864Z,20.96
2018-08-04T23:28:24.018Z,20.91
2018-08-04T23:30:53.633Z,20.81
2018-08-04T23:33:22.827Z,20.66
2018-08-04T23:35:51.996Z,20.56
2018-08-04T23:38:21.157Z,20.56
2018-08-04T23:40:50.316Z,20.56
2018-08-04T23:43:19.432Z,20.57
2018-08-04T23:45:48.661Z,20.58
2018-08-04T23:48:17.819Z,20.57
2018-08-04T23:50:46.990Z,20.52
2018-08-04T23:53:16.575Z,20.49
2018-08-04T23:55:45.743Z,20.47
2018-08-04T23:58:14.883Z,20.45
